Time;durP1;ratioP1;P1;durP2;ratioP2;P2;SDS_P1;SDS_P2;PMS_P1;PMS_P2;Temp;Humidity;BMP_temperature;BMP_pressure;BME280_temperature;BME280_humidity;BME280_pressure;Samples;Min_cycle;Max_cycle;Signal;HPM_P1;HPM_P2
2022/05/19 00:02:11;;;;;;;1.23;0.70;;;;;;;8.13;100.00;100258.84;1751555;80;21081;-46
2022/05/19 00:04:38;;;;;;;1.60;0.70;;;;;;;8.11;100.00;100265.58;1752910;81;22132;-44
2022/05/19 00:07:05;;;;;;;1.70;0.70;;;;;;;8.11;100.00;100257.99;1751367;80;21468;-44
2022/05/19 00:09:32;;;;;;;2.83;0.87;;;;;;;8.08;100.00;100254.09;1751032;80;21325;-47
2022/05/19 00:12:00;;;;;;;1.00;0.70;;;;;;;8.05;100.00;100256.39;1753662;81;21045;-43
2022/05/19 00:14:27;;;;;;;1.10;0.70;;;;;;;8.01;100.00;100259.19;1749194;81;21096;-44
2022/05/19 00:16:56;;;;;;;1.83;0.60;;;;;;;7.96;100.00;100258.00;1752051;81;21077;-48
2022/05/19 00:19:22;;;;;;;1.80;0.63;;;;;;;7.90;100.00;100249.69;1750156;79;21057;-43
2022/05/19 00:21:49;;;;;;;1.17;0.70;;;;;;;7.86;100.00;100253.37;1753562;81;20890;-43
2022/05/19 00:24:16;;;;;;;3.83;0.50;;;;;;;7.83;100.00;100248.09;1753084;80;21424;-44
2022/05/19 00:26:44;;;;;;;0.77;0.50;;;;;;;7.80;100.00;100250.00;1757735;80;21062;-45
2022/05/19 00:29:10;;;;;;;15.33;1.57;;;;;;;7.77;100.00;100256.77;1751591;80;21131;-46
2022/05/19 00:31:37;;;;;;;0.77;0.50;;;;;;;7.72;100.00;100258.72;1686009;83;20938;-47
2022/05/19 00:34:05;;;;;;;1.00;0.60;;;;;;;7.65;100.00;100258.48;1678483;84;20915;-44
2022/05/19 00:36:33;;;;;;;1.10;0.70;;;;;;;7.59;100.00;100266.20;1681305;83;21125;-45
2022/05/19 00:39:01;;;;;;;5.33;1.23;;;;;;;7.51;100.00;100269.56;1694206;83;20899;-44
2022/05/19 00:41:29;;;;;;;2.67;0.60;;;;;;;7.44;100.00;100267.98;1684150;83;21619;-44
2022/05/19 00:44:06;;;;;;;2.30;0.90;;;;;;;7.37;100.00;100273.09;1688914;83;21006;-44
2022/05/19 00:46:49;;;;;;;1.00;0.67;;;;;;;7.29;100.00;100262.58;1687178;83;21118;-46
2022/05/19 00:49:28;;;;;;;1.53;0.60;;;;;;;7.21;100.00;100270.83;1704908;82;21391;-47
2022/05/19 00:52:10;;;;;;;0.57;0.53;;;;;;;7.14;100.00;100270.57;1710667;83;21319;-46
2022/05/19 00:54:50;;;;;;;1.90;0.50;;;;;;;7.09;100.00;100272.47;1682064;83;22929;-44
2022/05/19 00:57:25;;;;;;;4.63;0.50;;;;;;;7.05;100.00;100271.27;1700004;82;21039;-47
2022/05/19 00:59:58;;;;;;;1.80;0.50;;;;;;;7.03;100.00;100267.73;1742079;80;21614;-45
2022/05/19 01:02:30;;;;;;;3.27;0.50;;;;;;;7.00;100.00;100271.36;1745705;80;21275;-44
2022/05/19 01:05:17;;;;;;;0.57;0.50;;;;;;;6.97;100.00;100267.45;1742702;80;21623;-47
2022/05/19 01:07:51;;;;;;;0.90;0.53;;;;;;;6.95;100.00;100273.29;1744284;80;21120;-45
2022/05/19 01:10:19;;;;;;;1.37;0.57;;;;;;;6.91;100.00;100270.71;1744661;80;21097;-45
2022/05/19 01:12:48;;;;;;;0.83;0.70;;;;;;;6.87;100.00;100264.58;1743101;80;21040;-44
2022/05/19 01:15:15;;;;;;;2.80;0.60;;;;;;;6.83;100.00;100269.11;1698155;82;20884;-46
2022/05/19 01:17:41;;;;;;;1.40;0.67;;;;;;;6.78;100.00;100263.01;1741840;80;21072;-44
2022/05/19 01:20:13;;;;;;;0.80;0.70;;;;;;;6.74;100.00;100268.45;1742689;80;21892;-46
2022/05/19 01:23:13;;;;;;;1.20;0.50;;;;;;;6.69;100.00;100271.26;1694189;82;21085;-44
2022/05/19 01:26:01;;;;;;;1.90;0.50;;;;;;;6.67;100.00;100273.08;1743279;80;21675;-44
2022/05/19 01:28:27;;;;;;;1.03;0.50;;;;;;;6.63;100.00;100275.42;1743436;80;21070;-44
2022/05/19 01:30:54;;;;;;;1.87;0.40;;;;;;;6.60;100.00;100274.61;1743121;80;21113;-46
2022/05/19 01:33:21;;;;;;;0.80;0.60;;;;;;;6.58;100.00;100274.64;1742839;80;21147;-45
2022/05/19 01:35:48;;;;;;;0.70;0.60;;;;;;;6.58;100.00;100267.07;1747122;80;20929;-46
2022/05/19 01:38:18;;;;;;;0.70;0.60;;;;;;;6.57;100.00;100274.22;1745487;80;21982;-45
2022/05/19 01:41:20;;;;;;;1.80;0.50;;;;;;;6.56;100.00;100273.78;1697485;82;21054;-48
2022/05/19 01:44:10;;;;;;;1.07;0.70;;;;;;;6.52;100.00;100270.78;1744360;80;22311;-48
2022/05/19 01:46:38;;;;;;;3.27;0.90;;;;;;;6.50;100.00;100273.06;1742882;80;21508;-44
2022/05/19 01:49:19;;;;;;;1.10;0.80;;;;;;;6.48;100.00;100274.88;1742157;80;21528;-47
2022/05/19 01:52:06;;;;;;;4.67;0.60;;;;;;;6.46;100.00;100274.95;1743551;80;21097;-45
2022/05/19 01:55:01;;;;;;;0.77;0.50;;;;;;;6.45;100.00;100278.08;1740385;80;21101;-49
2022/05/19 01:57:43;;;;;;;0.70;0.50;;;;;;;6.45;100.00;100273.18;1746980;80;21076;-48
2022/05/19 02:00:19;;;;;;;0.90;0.60;;;;;;;6.45;100.00;100281.20;1755150;80;21089;-46
2022/05/19 02:02:56;;;;;;;2.67;0.80;;;;;;;6.44;100.00;100276.77;1732716;81;20906;-46
2022/05/19 02:05:42;;;;;;;1.03;0.60;;;;;;;6.40;100.00;100286.64;1757754;80;21356;-46
2022/05/19 02:08:29;;;;;;;1.93;0.70;;;;;;;6.38;100.00;100288.95;1755634;81;20883;-47
2022/05/19 02:10:59;;;;;;;1.47;0.60;;;;;;;6.35;100.00;100299.25;1755040;81;20959;-46
2022/05/19 02:13:25;;;;;;;1.10;0.63;;;;;;;6.31;100.00;100285.97;1755273;80;21114;-47
2022/05/19 02:15:52;;;;;;;2.03;1.03;;;;;;;6.28;100.00;100290.06;1706249;83;21124;-46
2022/05/19 02:18:21;;;;;;;2.67;0.80;;;;;;;6.23;100.00;100294.16;1686437;83;20899;-46
2022/05/19 02:20:48;;;;;;;2.47;0.80;;;;;;;6.21;100.00;100293.80;1707337;83;21069;-46
2022/05/19 02:23:14;;;;;;;3.53;0.67;;;;;;;6.16;100.00;100292.54;1710266;82;21136;-48
2022/05/19 02:25:48;;;;;;;1.87;0.67;;;;;;;6.13;100.00;100297.94;1681443;84;21408;-45
2022/05/19 02:28:31;;;;;;;2.70;0.80;;;;;;;6.11;100.00;100303.80;1709357;83;21026;-48
2022/05/19 02:30:59;;;;;;;4.53;0.60;;;;;;;6.10;100.00;100303.83;1679180;83;21075;-47
2022/05/19 02:33:26;;;;;;;5.03;0.70;;;;;;;6.06;100.00;100301.20;1685476;83;20958;-47
2022/05/19 02:35:52;;;;;;;2.30;0.60;;;;;;;6.07;100.00;100300.30;1708133;82;21054;-48
2022/05/19 02:38:20;;;;;;;3.17;0.90;;;;;;;6.08;100.00;100304.73;1706330;82;21126;-48
2022/05/19 02:40:46;;;;;;;1.43;0.80;;;;;;;6.10;100.00;100312.73;1677190;84;21056;-47
2022/05/19 02:43:13;;;;;;;3.73;0.70;;;;;;;6.12;100.00;100310.02;1687080;84;20946;-47
2022/05/19 02:45:40;;;;;;;2.67;1.00;;;;;;;6.14;100.00;100305.50;1712095;83;20918;-47
2022/05/19 02:48:08;;;;;;;2.70;0.97;;;;;;;6.13;100.00;100305.08;1705782;82;21070;-48
2022/05/19 02:50:36;;;;;;;1.67;0.90;;;;;;;6.13;100.00;100319.77;1706269;82;21148;-46
2022/05/19 02:53:03;;;;;;;7.10;1.03;;;;;;;6.12;100.00;100312.25;1705950;82;21152;-45
2022/05/19 02:55:30;;;;;;;2.33;1.10;;;;;;;6.13;100.00;100309.97;1677657;84;20916;-47
2022/05/19 02:57:57;;;;;;;2.63;0.80;;;;;;;6.14;100.00;100311.73;1680776;83;21425;-46
2022/05/19 03:00:25;;;;;;;4.00;1.10;;;;;;;6.18;100.00;100313.89;1734741;80;21398;-48
2022/05/19 03:02:56;;;;;;;2.13;1.00;;;;;;;6.22;100.00;100313.78;1732381;80;21066;-45
2022/05/19 03:05:26;;;;;;;2.63;1.20;;;;;;;6.27;100.00;100311.91;1731260;80;20930;-48
2022/05/19 03:07:54;;;;;;;2.30;1.00;;;;;;;6.35;100.00;100317.08;1730509;80;20938;-45
2022/05/19 03:10:21;;;;;;;4.53;1.37;;;;;;;6.42;100.00;100315.57;1732255;80;20969;-47
2022/05/19 03:12:47;;;;;;;2.63;1.57;;;;;;;6.48;100.00;100317.22;1731985;80;20891;-48
2022/05/19 03:15:13;;;;;;;7.37;2.30;;;;;;;6.54;100.00;100319.77;1732340;80;21377;-46
2022/05/19 03:17:41;;;;;;;4.13;1.77;;;;;;;6.59;100.00;100320.53;1734483;80;20906;-46
2022/05/19 03:20:08;;;;;;;3.20;1.43;;;;;;;6.62;100.00;100320.48;1732005;80;21910;-47
2022/05/19 03:22:35;;;;;;;4.50;1.30;;;;;;;6.68;100.00;100328.80;1732839;80;21010;-46
2022/05/19 03:25:02;;;;;;;3.13;1.50;;;;;;;6.70;100.00;100322.97;1730919;80;21923;-46
2022/05/19 03:27:29;;;;;;;4.47;1.97;;;;;;;6.75;100.00;100323.73;1733396;80;21412;-46
2022/05/19 03:29:55;;;;;;;7.20;2.23;;;;;;;6.79;100.00;100318.74;1728205;80;20998;-49
2022/05/19 03:32:21;;;;;;;3.87;1.47;;;;;;;6.87;100.00;100328.80;1732692;80;20926;-49
2022/05/19 03:34:48;;;;;;;7.33;1.50;;;;;;;6.95;100.00;100324.14;1733273;80;21037;-46
2022/05/19 03:37:16;;;;;;;9.33;2.20;;;;;;;7.05;100.00;100324.80;1733410;80;22134;-47
2022/05/19 03:39:42;;;;;;;6.83;1.90;;;;;;;7.12;100.00;100322.38;1727379;80;21099;-45
2022/05/19 03:42:09;;;;;;;4.60;2.00;;;;;;;7.19;100.00;100325.32;1730170;80;21041;-46
2022/05/19 03:44:36;;;;;;;6.07;2.20;;;;;;;7.25;100.00;100331.84;1734973;80;20927;-45
2022/05/19 03:47:04;;;;;;;4.70;1.87;;;;;;;7.30;100.00;100333.09;1732801;80;21092;-45
2022/05/19 03:49:32;;;;;;;5.70;1.60;;;;;;;7.33;100.00;100335.66;1732203;80;21652;-46
2022/05/19 03:51:58;;;;;;;8.03;2.00;;;;;;;7.38;100.00;100335.98;1733314;80;21123;-47
2022/05/19 03:54:24;;;;;;;5.23;1.80;;;;;;;7.44;100.00;100340.30;1729605;80;21073;-46
2022/05/19 03:56:51;;;;;;;4.97;1.40;;;;;;;7.51;100.00;100345.45;1730213;80;21723;-47
2022/05/19 03:59:17;;;;;;;5.30;2.13;;;;;;;7.59;100.00;100347.92;1739084;80;21054;-46
2022/05/19 04:01:43;;;;;;;6.60;1.93;;;;;;;7.66;100.00;100340.59;1741211;80;21107;-45
2022/05/19 04:04:10;;;;;;;9.23;3.47;;;;;;;7.75;100.00;100344.36;1740912;80;21206;-48
2022/05/19 04:06:36;;;;;;;10.50;2.40;;;;;;;7.81;100.00;100345.09;1740156;80;21092;-47
2022/05/19 04:09:04;;;;;;;7.53;2.53;;;;;;;7.88;100.00;100341.78;1742142;80;22586;-47
2022/05/19 04:11:31;;;;;;;6.37;3.07;;;;;;;7.93;100.00;100340.72;1741708;80;21101;-48
2022/05/19 04:13:58;;;;;;;11.73;2.13;;;;;;;7.99;100.00;100347.23;1741227;80;21074;-47
2022/05/19 04:16:25;;;;;;;9.13;3.30;;;;;;;8.07;100.00;100338.13;1741080;80;21153;-48
2022/05/19 04:18:51;;;;;;;7.27;2.50;;;;;;;8.12;100.00;100344.22;1743937;80;21097;-48
2022/05/19 04:21:19;;;;;;;8.90;2.67;;;;;;;8.18;100.00;100352.95;1742363;80;21068;-47
2022/05/19 04:23:46;;;;;;;3.97;2.20;;;;;;;8.28;100.00;100349.09;1741816;80;22246;-49
2022/05/19 04:26:12;;;;;;;6.97;2.67;;;;;;;8.43;100.00;100351.80;1742035;80;21058;-48
2022/05/19 04:28:39;;;;;;;6.20;2.23;;;;;;;8.59;100.00;100354.93;1743959;80;21126;-48
2022/05/19 04:31:06;;;;;;;5.87;2.73;;;;;;;8.68;100.00;100353.27;1740430;80;21137;-48
2022/05/19 04:33:33;;;;;;;13.80;3.17;;;;;;;8.76;100.00;100346.36;1743768;80;21073;-48
2022/05/19 04:35:59;;;;;;;6.70;2.27;;;;;;;8.83;100.00;100357.31;1743837;80;21563;-48
2022/05/19 04:38:25;;;;;;;9.15;2.75;;;;;;;8.88;100.00;100354.00;1745033;80;21099;-49
2022/05/19 04:40:52;;;;;;;5.40;1.90;;;;;;;8.92;100.00;100355.68;1738918;80;21487;-50
2022/05/19 04:43:24;;;;;;;5.40;1.82;;;;;;;8.98;100.00;100359.03;1740518;80;21316;-50
2022/05/19 04:45:53;;;;;;;7.20;2.25;;;;;;;9.05;100.00;100363.28;1737741;80;21049;-49
2022/05/19 04:48:21;;;;;;;4.67;2.22;;;;;;;9.14;100.00;100363.44;1740572;80;21619;-48
2022/05/19 04:50:54;;;;;;;6.70;2.12;;;;;;;9.22;100.00;100351.09;1739398;80;21349;-47
2022/05/19 04:53:21;;;;;;;8.55;2.62;;;;;;;9.29;100.00;100362.93;1736403;80;21244;-49
2022/05/19 04:55:49;;;;;;;5.10;2.25;;;;;;;9.36;100.00;100356.88;1739720;80;21038;-50
2022/05/19 04:58:15;;;;;;;3.92;2.20;;;;;;;9.43;100.00;100362.48;1742471;79;21503;-49
2022/05/19 05:00:42;;;;;;;8.55;2.17;;;;;;;9.50;100.00;100353.28;1748381;81;21082;-48
2022/05/19 05:03:08;;;;;;;3.62;2.15;;;;;;;9.58;100.00;100357.92;1742565;80;21138;-48
2022/05/19 05:05:35;;;;;;;9.25;2.98;;;;;;;9.65;100.00;100351.86;1746001;80;21488;-49
2022/05/19 05:08:01;;;;;;;8.50;2.52;;;;;;;9.72;100.00;100364.16;1739722;80;21058;-51
2022/05/19 05:10:29;;;;;;;7.83;2.45;;;;;;;9.78;100.00;100354.05;1746753;80;21980;-51
2022/05/19 05:12:56;;;;;;;6.97;2.35;;;;;;;9.87;100.00;100360.45;1741654;80;21042;-51
2022/05/19 05:15:22;;;;;;;5.60;1.90;;;;;;;9.95;100.00;100355.30;1743096;81;21034;-50
2022/05/19 05:17:49;;;;;;;3.50;1.90;;;;;;;10.04;100.00;100354.46;1744725;81;22111;-51
2022/05/19 05:20:15;;;;;;;5.30;2.40;;;;;;;10.15;100.00;100359.45;1744877;80;21348;-49
2022/05/19 05:22:42;;;;;;;4.55;1.87;;;;;;;10.25;100.00;100359.56;1742579;80;21143;-49
2022/05/19 05:25:13;;;;;;;5.17;2.08;;;;;;;10.36;100.00;100351.09;1739498;80;21060;-49
2022/05/19 05:27:43;;;;;;;;;;;;;;;10.45;100.00;100351.63;1747378;80;21073;-50
2022/05/19 05:30:11;;;;;;;4.45;1.82;;;;;;;10.56;100.00;100364.19;1741767;80;21161;-51
2022/05/19 05:32:37;;;;;;;5.40;2.60;;;;;;;10.67;100.00;100353.48;1698242;83;21114;-50
2022/05/19 05:35:06;;;;;;;5.87;2.77;;;;;;;10.74;100.00;100353.64;1741915;81;21038;-48
2022/05/19 05:37:32;;;;;;;3.85;2.15;;;;;;;10.82;100.00;100355.56;1742672;81;21804;-49
2022/05/19 05:39:59;;;;;;;6.42;2.70;;;;;;;10.87;100.00;100353.58;1741386;80;21106;-49
2022/05/19 05:42:25;;;;;;;6.33;2.95;;;;;;;10.94;100.00;100357.78;1741026;80;21479;-48
2022/05/19 05:44:53;;;;;;;5.12;2.02;;;;;;;11.03;100.00;100368.19;1741105;81;21038;-49
2022/05/19 05:47:20;;;;;;;9.00;2.75;;;;;;;11.10;100.00;100362.95;1742138;81;21050;-49
2022/05/19 05:49:46;;;;;;;6.15;2.10;;;;;;;11.18;100.00;100359.47;1744593;80;22031;-48
2022/05/19 05:52:13;;;;;;;6.08;2.45;;;;;;;11.27;100.00;100361.79;1745465;80;21014;-51
2022/05/19 05:54:42;;;;;;;5.97;2.22;;;;;;;11.35;100.00;100362.34;1743776;81;21137;-50
2022/05/19 05:57:09;;;;;;;5.05;2.40;;;;;;;11.45;100.00;100360.62;1743095;81;21532;-49
2022/05/19 05:59:36;;;;;;;5.45;2.12;;;;;;;11.53;100.00;100355.77;1743167;80;21410;-50
2022/05/19 06:02:04;;;;;;;9.90;3.05;;;;;;;11.62;100.00;100364.82;1741306;80;21479;-50
2022/05/19 06:04:31;;;;;;;6.42;2.15;;;;;;;11.70;100.00;100372.11;1743106;80;20871;-49
2022/05/19 06:06:58;;;;;;;3.98;2.37;;;;;;;11.79;100.00;100369.52;1742944;80;21422;-50
2022/05/19 06:09:24;;;;;;;6.22;1.98;;;;;;;11.88;100.00;100368.66;1742197;80;20971;-51
2022/05/19 06:11:52;;;;;;;4.33;2.20;;;;;;;11.97;100.00;100372.30;1736062;80;21084;-51
2022/05/19 06:14:18;;;;;;;9.13;2.77;;;;;;;12.07;100.00;100370.08;1737510;80;21355;-50
2022/05/19 06:16:45;;;;;;;6.83;2.47;;;;;;;12.16;100.00;100366.97;1738326;80;21539;-50
2022/05/19 06:19:12;;;;;;;4.62;2.70;;;;;;;12.26;100.00;100367.40;1739203;80;21156;-50
2022/05/19 06:21:39;;;;;;;4.80;2.52;;;;;;;12.32;100.00;100371.19;1700121;82;21082;-49
2022/05/19 06:24:10;;;;;;;3.90;2.42;;;;;;;12.40;100.00;100367.67;1736940;80;21293;-49
2022/05/19 06:26:38;;;;;;;6.08;3.00;;;;;;;12.50;100.00;100369.00;1743823;80;20959;-51
2022/05/19 06:29:05;;;;;;;6.28;1.90;;;;;;;12.60;100.00;100370.77;1742814;80;20947;-51
2022/05/19 06:31:31;;;;;;;4.00;2.20;;;;;;;12.69;100.00;100369.00;1740649;80;21119;-51
2022/05/19 06:33:59;;;;;;;5.83;2.02;;;;;;;12.79;100.00;100369.84;1741298;80;20969;-50
2022/05/19 06:36:26;;;;;;;5.67;1.72;;;;;;;12.89;100.00;100364.41;1743198;80;20904;-50
2022/05/19 06:38:52;;;;;;;5.35;2.27;;;;;;;12.97;100.00;100367.21;1739369;80;21169;-51
2022/05/19 06:44:05;;;;;;;7.45;1.95;;;;;;;13.10;100.00;100371.09;1738248;80;21376;-50
2022/05/19 06:46:33;;;;;;;4.25;1.70;;;;;;;13.15;100.00;100375.34;1738244;80;21122;-51
2022/05/19 06:49:02;;;;;;;8.18;2.30;;;;;;;13.22;100.00;100370.50;1739936;80;21044;-50
2022/05/19 06:51:30;;;;;;;4.90;1.62;;;;;;;13.29;100.00;100365.66;1743605;80;21386;-51
2022/05/19 06:53:58;;;;;;;6.10;2.67;;;;;;;13.37;100.00;100371.56;1745529;80;21599;-52
2022/05/19 06:56:24;;;;;;;4.45;2.22;;;;;;;13.44;100.00;100361.71;1745012;80;21088;-51
2022/05/19 06:58:52;;;;;;;10.95;2.60;;;;;;;13.53;100.00;100365.78;1742540;80;21068;-53
2022/05/19 07:01:18;;;;;;;3.40;1.87;;;;;;;13.63;100.00;100367.95;1742397;80;21055;-50
2022/05/19 07:03:46;;;;;;;5.87;1.92;;;;;;;13.73;100.00;100359.36;1741648;80;21076;-53
2022/05/19 07:06:12;;;;;;;3.33;1.05;;;;;;;13.79;100.00;100359.91;1742454;80;21058;-54
2022/05/19 07:08:41;;;;;;;2.40;1.10;;;;;;;13.88;100.00;100358.09;1724815;80;21162;-52
2022/05/19 07:11:24;;;;;;;2.90;1.20;;;;;;;13.99;100.00;100361.59;1744170;80;20937;-50
2022/05/19 07:13:40;;;;;;;4.30;1.20;;;;;;;14.09;100.00;100354.74;1725008;80;21057;-51
2022/05/19 07:16:06;;;;;;;5.15;1.60;;;;;;;14.20;100.00;100360.47;1744180;80;21148;-50
2022/05/19 07:18:33;;;;;;;5.78;1.77;;;;;;;14.28;100.00;100348.75;1744577;80;21069;-53
2022/05/19 07:20:59;;;;;;;4.40;1.90;;;;;;;14.40;100.00;100349.93;1741632;80;21898;-51
2022/05/19 07:23:27;;;;;;;7.87;1.30;;;;;;;14.40;100.00;100349.93;1722246;80;21061;-52
2022/05/19 07:25:54;;;;;;;5.20;1.42;;;;;;;14.47;100.00;100346.40;1729216;81;21008;-51
2022/05/19 07:28:22;;;;;;;4.83;1.52;;;;;;;14.52;100.00;100356.52;1673514;83;21102;-52
2022/05/19 07:30:49;;;;;;;2.87;1.00;;;;;;;14.60;100.00;100350.20;1745962;80;21129;-53
2022/05/19 07:33:17;;;;;;;2.27;1.00;;;;;;;14.68;100.00;100356.95;1745851;80;22225;-53
2022/05/19 07:35:46;;;;;;;1.50;0.90;;;;;;;14.76;100.00;100360.10;1747270;80;20904;-50
2022/05/19 07:38:14;;;;;;;3.65;0.90;;;;;;;14.84;100.00;100357.44;1743122;80;21039;-52
2022/05/19 07:40:43;;;;;;;3.40;1.00;;;;;;;14.89;100.00;100360.27;1745837;80;21539;-52
2022/05/19 07:45:58;;;;;;;2.02;0.80;;;;;;;15.01;100.00;100351.94;1738775;80;21279;-53
2022/05/19 07:48:24;;;;;;;2.77;0.80;;;;;;;15.08;100.00;100342.01;1743471;80;21070;-52
2022/05/19 07:50:51;;;;;;;1.40;0.60;;;;;;;15.19;100.00;100342.75;1745435;80;21048;-52
2022/05/19 07:53:17;;;;;;;1.47;0.60;;;;;;;15.27;100.00;100340.95;1737018;81;21155;-51
2022/05/19 07:55:44;;;;;;;2.20;0.75;;;;;;;15.31;100.00;100346.09;1742100;80;21114;-52
2022/05/19 07:58:11;;;;;;;1.77;0.68;;;;;;;15.33;100.00;100342.81;1744045;80;22218;-53
2022/05/19 08:00:38;;;;;;;2.15;0.60;;;;;;;15.37;100.00;100336.74;1740177;80;21053;-53
2022/05/19 08:03:04;;;;;;;5.10;0.70;;;;;;;15.41;100.00;100327.44;1741070;80;21051;-53
2022/05/19 08:05:31;;;;;;;1.30;0.40;;;;;;;15.44;100.00;100328.15;1740979;80;21078;-52
2022/05/19 08:07:57;;;;;;;0.60;0.50;;;;;;;15.49;100.00;100333.29;1746119;80;21022;-52
2022/05/19 08:10:24;;;;;;;1.60;0.50;;;;;;;15.53;100.00;100332.16;1744052;80;22494;-52
2022/05/19 08:15:40;;;;;;;1.27;0.60;;;;;;;15.62;100.00;100334.36;1747881;80;21132;-52
2022/05/19 08:18:14;;;;;;;4.30;0.78;;;;;;;15.64;100.00;100329.72;1744898;80;21106;-51
2022/05/19 08:20:44;;;;;;;0.88;0.50;;;;;;;15.67;100.00;100324.09;1675844;84;21046;-52
2022/05/19 08:23:22;;;;;;;1.95;0.30;;;;;;;15.73;100.00;100326.94;1741580;80;21164;-51
2022/05/19 08:25:49;;;;;;;2.05;0.40;;;;;;;15.75;100.00;100313.64;1746730;80;21313;-53
2022/05/19 08:28:16;;;;;;;2.33;0.30;;;;;;;15.76;100.00;100318.11;1747409;80;21521;-51
2022/05/19 08:30:45;;;;;;;2.77;0.30;;;;;;;15.81;100.00;100318.72;1744957;80;21565;-54
2022/05/19 08:33:11;;;;;;;0.75;0.30;;;;;;;15.86;100.00;100311.16;1744131;80;21664;-50
2022/05/19 08:35:38;;;;;;;1.07;0.40;;;;;;;15.95;100.00;100306.13;1745474;80;21119;-52
2022/05/19 08:38:04;;;;;;;1.42;0.30;;;;;;;16.01;100.00;100303.03;1744314;80;21125;-53
2022/05/19 08:40:45;;;;;;;0.42;0.30;;;;;;;16.09;100.00;100302.06;1745425;80;21086;-52
2022/05/19 08:43:13;;;;;;;1.25;0.45;;;;;;;16.17;100.00;100292.95;1741324;80;21121;-51
2022/05/19 08:45:44;;;;;;;0.70;0.30;;;;;;;16.26;100.00;100293.25;1723431;80;21271;-54
2022/05/19 08:48:21;;;;;;;3.27;0.40;;;;;;;16.31;100.00;100293.47;1744675;80;21113;-53
2022/05/19 08:50:53;;;;;;;0.62;0.30;;;;;;;16.33;100.00;100301.91;1747402;80;20970;-54
2022/05/19 08:53:20;;;;;;;0.65;0.33;;;;;;;16.37;100.00;100296.66;1741130;80;21071;-53
2022/05/19 08:55:51;;;;;;;1.37;0.30;;;;;;;16.43;100.00;100301.69;1675317;83;20936;-54
2022/05/19 08:58:51;;;;;;;1.15;0.40;;;;;;;16.48;100.00;100300.06;1750488;80;20959;-53
2022/05/19 09:01:25;;;;;;;1.67;0.50;;;;;;;16.48;100.00;100292.78;1749618;81;21416;-53
2022/05/19 09:03:59;;;;;;;;;;;;;;;16.49;100.00;100295.89;1709299;83;20968;-52
2022/05/19 09:06:36;;;;;;;0.93;0.37;;;;;;;16.55;100.00;100305.00;1683434;83;20490;-53
2022/05/19 09:09:19;;;;;;;1.00;0.40;;;;;;;16.62;100.00;100290.56;1748869;80;20903;-53
2022/05/19 09:11:59;;;;;;;3.87;0.40;;;;;;;16.67;100.00;100290.28;1747229;79;20968;-52
2022/05/19 09:14:28;;;;;;;0.82;0.37;;;;;;;16.69;100.00;100291.90;1704037;82;21126;-51
2022/05/19 09:17:07;;;;;;;3.02;0.40;;;;;;;16.78;100.00;100298.58;1683045;83;20912;-52
2022/05/19 09:19:41;;;;;;;0.75;0.40;;;;;;;16.85;100.00;100294.00;1748936;80;20905;-53
2022/05/19 09:22:19;;;;;;;1.57;0.82;;;;;;;16.92;100.00;100284.50;1748736;81;21355;-53
2022/05/19 09:24:48;;;;;;;2.35;0.40;;;;;;;16.97;100.00;100279.61;1751239;80;20887;-53
2022/05/19 09:27:16;;;;;;;0.80;0.50;;;;;;;17.02;100.00;100284.73;1751851;80;21108;-53
2022/05/19 09:29:52;;;;;;;4.28;0.70;;;;;;;17.09;100.00;100277.94;1751480;80;20883;-51
2022/05/19 09:32:39;;;;;;;4.00;0.60;;;;;;;17.17;100.00;100268.77;1750288;80;20891;-51
2022/05/19 09:35:15;;;;;;;;;;;;;;;17.28;100.00;100286.59;1753923;80;20913;-54
2022/05/19 09:37:47;;;;;;;1.77;0.70;;;;;;;17.36;100.00;100274.69;1753555;80;20160;-53
2022/05/19 09:40:24;;;;;;;3.05;0.70;;;;;;;17.38;100.00;100266.44;1751030;81;21838;-54
2022/05/19 09:43:04;;;;;;;1.45;0.68;;;;;;;17.38;100.00;100268.66;1750307;80;21077;-52
2022/05/19 09:45:32;;;;;;;3.08;1.00;;;;;;;17.39;100.00;100265.46;1745896;80;21050;-51
2022/05/19 09:48:05;;;;;;;1.75;0.80;;;;;;;17.41;100.00;100264.88;1702770;81;21386;-53
2022/05/19 09:50:48;;;;;;;4.30;0.80;;;;;;;17.48;100.00;100257.16;1747265;80;21083;-54
2022/05/19 09:53:25;;;;;;;2.75;0.70;;;;;;;17.53;100.00;100260.42;1694558;83;21086;-52
2022/05/19 09:56:01;;;;;;;1.30;0.70;;;;;;;17.58;100.00;100265.08;1747214;80;21442;-54
2022/05/19 09:58:35;;;;;;;3.70;0.80;;;;;;;17.61;100.00;100254.83;1740159;80;21168;-53
2022/05/19 10:01:08;;;;;;;2.12;1.00;;;;;;;17.67;100.00;100254.46;1726553;80;20903;-53
2022/05/19 10:03:58;;;;;;;2.90;0.70;;;;;;;17.74;100.00;100258.49;1753552;80;22402;-54
2022/05/19 10:06:39;;;;;;;2.08;0.70;;;;;;;17.78;100.00;100251.84;1757467;80;21175;-53
2022/05/19 10:09:09;;;;;;;3.02;0.62;;;;;;;17.81;100.00;100245.80;1707452;82;22062;-53
2022/05/19 10:11:51;;;;;;;1.17;0.60;;;;;;;17.84;100.00;100242.39;1725023;80;20935;-54
2022/05/19 10:14:27;;;;;;;1.77;0.75;;;;;;;17.90;100.00;100246.03;1751891;80;21613;-51
2022/05/19 10:17:17;;;;;;;3.05;0.70;;;;;;;17.96;100.00;100242.86;1749236;79;21721;-55
2022/05/19 10:20:08;;;;;;;2.50;0.65;;;;;;;17.98;100.00;100237.31;1751672;80;21403;-54
2022/05/19 10:23:17;;;;;;;1.05;0.50;;;;;;;18.02;100.00;100240.22;1751952;79;22530;-53
2022/05/19 10:25:59;;;;;;;1.30;0.30;;;;;;;18.05;100.00;100233.17;1751444;80;21502;-52
2022/05/19 10:32:03;;;;;;;1.30;0.30;;;;;;;18.10;100.00;100225.07;1752238;80;21340;-52
2022/05/19 10:35:00;;;;;;;0.40;0.30;;;;;;;18.14;100.00;100226.57;1709832;82;22431;-54
2022/05/19 10:37:58;;;;;;;2.37;0.33;;;;;;;18.22;100.00;100227.37;1752696;79;21272;-52
2022/05/19 10:41:07;;;;;;;2.02;0.30;;;;;;;18.23;100.00;100225.04;1747671;79;21155;-53
2022/05/19 10:43:43;;;;;;;0.85;0.40;;;;;;;18.22;100.00;100221.93;1663806;83;21406;-54
2022/05/19 10:46:13;;;;;;;0.90;0.30;;;;;;;18.24;100.00;100221.34;1753089;79;21777;-51
2022/05/19 10:49:03;;;;;;;0.82;0.20;;;;;;;18.29;100.00;100216.41;1755539;80;21664;-51
2022/05/19 10:51:58;;;;;;;0.60;0.20;;;;;;;18.37;100.00;100218.08;1753959;79;22298;-54
2022/05/19 10:55:04;;;;;;;2.58;0.20;;;;;;;18.47;100.00;100214.20;1755418;80;21060;-53
2022/05/19 10:57:53;;;;;;;0.53;0.28;;;;;;;18.49;100.00;100209.52;1750850;80;21404;-52
2022/05/19 11:00:27;;;;;;;0.50;0.20;;;;;;;18.44;100.00;100208.50;1705608;82;21042;-54
2022/05/19 11:03:27;;;;;;;0.20;0.20;;;;;;;18.45;100.00;100210.73;1728399;81;20969;-52
2022/05/19 11:06:32;;;;;;;1.60;0.10;;;;;;;18.45;100.00;100195.75;1741372;80;20951;-51
2022/05/19 11:09:21;;;;;;;1.90;0.20;;;;;;;18.47;100.00;100197.35;1673551;83;21389;-51
2022/05/19 11:15:37;;;;;;;0.33;0.20;;;;;;;18.56;100.00;100201.74;1786098;78;28853;-53
2022/05/19 11:18:18;;;;;;;0.37;0.20;;;;;;;18.49;100.00;100193.16;1738227;79;20907;-53
2022/05/19 11:20:56;;;;;;;0.20;0.20;;;;;;;18.48;100.00;100185.95;1770743;79;22099;-51
2022/05/19 11:23:45;;;;;;;4.97;0.20;;;;;;;18.49;100.00;100183.62;1770453;79;21017;-53
2022/05/19 11:26:27;;;;;;;0.68;0.17;;;;;;;18.49;100.00;100187.70;1740657;80;21116;-51
2022/05/19 11:29:15;;;;;;;2.00;0.25;;;;;;;18.51;100.00;100178.92;1738270;80;21037;-54
2022/05/19 11:32:01;;;;;;;0.10;0.10;;;;;;;18.55;100.00;100184.52;1739945;80;21374;-52
2022/05/19 11:34:56;;;;;;;0.35;0.10;;;;;;;18.58;100.00;100178.88;1708584;82;22350;-52
2022/05/19 11:37:34;;;;;;;3.40;0.20;;;;;;;18.62;100.00;100179.53;1715407;81;21038;-53
2022/05/19 11:40:23;;;;;;;0.50;0.20;;;;;;;18.68;100.00;100179.06;1710918;82;21074;-52
2022/05/19 11:43:19;;;;;;;0.80;0.55;;;;;;;18.73;100.00;100172.27;1711866;82;22429;-51
2022/05/19 11:46:00;;;;;;;1.00;0.15;;;;;;;18.76;100.00;100165.23;1710640;82;21614;-54
2022/05/19 11:55:18;;;;;;;1.02;0.10;;;;;;;18.98;100.00;100163.09;1710581;82;21407;-55
2022/05/19 11:57:56;;;;;;;0.10;0.10;;;;;;;19.05;100.00;100156.70;1707509;83;20938;-52
2022/05/19 12:00:26;;;;;;;1.02;0.20;;;;;;;19.11;100.00;100145.30;1708434;82;20995;-53
2022/05/19 12:03:06;;;;;;;1.42;0.15;;;;;;;19.11;100.00;100146.18;1711320;82;21549;-51
2022/05/19 12:05:58;;;;;;;2.65;0.20;;;;;;;19.14;100.00;100151.38;1713023;82;20915;-53
2022/05/19 12:08:35;;;;;;;0.85;0.20;;;;;;;19.14;100.00;100151.38;1718083;82;21959;-51